Terminal Aerodrome Forecast
Issued by NWS

Home | Current Version | Previous Version | Text Only | Print | Product List | Glossary On
Versions: 1 2 3 4 5 6 7 8 9 10 11 12
000
FTUS41 KLWX 131100
TAFMTN
TAF
KMTN 131131Z 1312/1412 19008KT P6SM SCT015 BKN130
     FM131800 20011KT P6SM VCTS SCT050CB BKN090
     FM140000 20007KT P6SM BKN090=

USA.gov is the U.S. government's official web portal to all federal, state and local government web resources and services.